sensor_id;sensor_type;location;lat;lon;timestamp;pressure;altitude;pressure_sealevel;temperature;humidity
40075;BME280;26529;51.530;11.754;2023-02-18T00:02:05;100411.28;;;21.54;44.17
40075;BME280;26529;51.530;11.754;2023-02-18T00:04:31;100419.41;;;21.53;44.16
40075;BME280;26529;51.530;11.754;2023-02-18T00:06:57;100417.69;;;21.52;44.10
40075;BME280;26529;51.530;11.754;2023-02-18T00:09:22;100403.50;;;21.51;44.16
40075;BME280;26529;51.530;11.754;2023-02-18T00:11:47;100416.00;;;21.51;44.14
40075;BME280;26529;51.530;11.754;2023-02-18T00:14:14;100419.50;;;21.51;44.18
40075;BME280;26529;51.530;11.754;2023-02-18T00:16:41;100421.31;;;21.51;44.05
40075;BME280;26529;51.530;11.754;2023-02-18T00:19:11;100416.94;;;21.50;44.25
40075;BME280;26529;51.530;11.754;2023-02-18T00:21:37;100416.19;;;21.48;44.17
40075;BME280;26529;51.530;11.754;2023-02-18T00:24:04;100414.41;;;21.48;44.23
40075;BME280;26529;51.530;11.754;2023-02-18T00:26:30;100418.84;;;21.48;44.22
40075;BME280;26529;51.530;11.754;2023-02-18T00:28:56;100418.84;;;21.48;44.13
40075;BME280;26529;51.530;11.754;2023-02-18T00:31:30;100420.78;;;21.46;44.20
40075;BME280;26529;51.530;11.754;2023-02-18T00:33:58;100411.19;;;21.43;44.26
40075;BME280;26529;51.530;11.754;2023-02-18T00:36:27;100423.56;;;21.44;44.27
40075;BME280;26529;51.530;11.754;2023-02-18T00:38:58;100417.41;;;21.44;44.14
40075;BME280;26529;51.530;11.754;2023-02-18T00:41:25;100417.41;;;21.44;44.14
40075;BME280;26529;51.530;11.754;2023-02-18T00:43:52;100411.28;;;21.41;44.23
40075;BME280;26529;51.530;11.754;2023-02-18T00:46:19;100421.97;;;21.41;44.18
40075;BME280;26529;51.530;11.754;2023-02-18T00:48:44;100421.13;;;21.41;44.17
40075;BME280;26529;51.530;11.754;2023-02-18T00:51:10;100413.13;;;21.41;44.25
40075;BME280;26529;51.530;11.754;2023-02-18T00:53:37;100407.78;;;21.41;44.28
40075;BME280;26529;51.530;11.754;2023-02-18T00:56:04;100421.22;;;21.39;44.22
40075;BME280;26529;51.530;11.754;2023-02-18T00:58:30;100412.50;;;21.37;44.24
40075;BME280;26529;51.530;11.754;2023-02-18T01:00:56;100409.94;;;21.36;44.22
40075;BME280;26529;51.530;11.754;2023-02-18T01:03:22;100406.28;;;21.37;44.20
40075;BME280;26529;51.530;11.754;2023-02-18T01:05:48;100404.59;;;21.36;44.22
40075;BME280;26529;51.530;11.754;2023-02-18T01:08:18;100409.94;;;21.36;44.29
40075;BME280;26529;51.530;11.754;2023-02-18T01:10:45;100414.41;;;21.35;44.19
40075;BME280;26529;51.530;11.754;2023-02-18T01:13:12;100419.72;;;21.35;44.22
40075;BME280;26529;51.530;11.754;2023-02-18T01:15:39;100417.06;;;21.35;43.99
40075;BME280;26529;51.530;11.754;2023-02-18T01:18:06;100418.03;;;21.34;44.21
40075;BME280;26529;51.530;11.754;2023-02-18T01:20:34;100416.31;;;21.33;44.25
40075;BME280;26529;51.530;11.754;2023-02-18T01:22:59;100410.13;;;21.33;44.17
40075;BME280;26529;51.530;11.754;2023-02-18T01:25:25;100411.97;;;21.32;44.29
40075;BME280;26529;51.530;11.754;2023-02-18T01:27:50;100412.94;;;21.31;44.30
40075;BME280;26529;51.530;11.754;2023-02-18T01:30:17;100395.22;;;21.30;44.29
40075;BME280;26529;51.530;11.754;2023-02-18T01:32:44;100406.72;;;21.31;44.29
40075;BME280;26529;51.530;11.754;2023-02-18T01:35:11;100400.56;;;21.30;44.27
40075;BME280;26529;51.530;11.754;2023-02-18T01:37:38;100407.69;;;21.30;44.16
40075;BME280;26529;51.530;11.754;2023-02-18T01:40:05;100397.13;;;21.28;44.41
40075;BME280;26529;51.530;11.754;2023-02-18T01:42:31;100406.00;;;21.28;44.47
40075;BME280;26529;51.530;11.754;2023-02-18T01:50:28;100405.25;;;21.26;44.24
40075;BME280;26529;51.530;11.754;2023-02-18T01:52:54;100417.72;;;21.26;44.49
40075;BME280;26529;51.530;11.754;2023-02-18T01:55:20;100415.06;;;21.26;44.25
40075;BME280;26529;51.530;11.754;2023-02-18T01:57:45;100408.03;;;21.25;44.30
40075;BME280;26529;51.530;11.754;2023-02-18T02:00:17;100413.56;;;21.22;44.30
40075;BME280;26529;51.530;11.754;2023-02-18T02:02:48;100415.25;;;21.23;44.39
40075;BME280;26529;51.530;11.754;2023-02-18T02:05:15;100415.25;;;21.23;44.41
40075;BME280;26529;51.530;11.754;2023-02-18T02:07:41;100414.41;;;21.22;44.31
40075;BME280;26529;51.530;11.754;2023-02-18T02:10:11;100415.25;;;21.23;44.26
40075;BME280;26529;51.530;11.754;2023-02-18T02:12:58;100414.53;;;21.21;44.38
40075;BME280;26529;51.530;11.754;2023-02-18T02:23:54;100409.28;;;21.19;44.44
40075;BME280;26529;51.530;11.754;2023-02-18T02:27:24;100404.81;;;21.20;44.33
40075;BME280;26529;51.530;11.754;2023-02-18T02:29:50;100407.59;;;21.18;44.24
40075;BME280;26529;51.530;11.754;2023-02-18T02:32:54;100406.75;;;21.18;44.33
40075;BME280;26529;51.530;11.754;2023-02-18T02:35:37;100400.56;;;21.17;44.32
40075;BME280;26529;51.530;11.754;2023-02-18T02:38:11;100398.84;;;21.16;44.44
40075;BME280;26529;51.530;11.754;2023-02-18T02:43:45;100409.53;;;21.16;44.30
40075;BME280;26529;51.530;11.754;2023-02-18T02:46:20;100407.81;;;21.15;44.33
40075;BME280;26529;51.530;11.754;2023-02-18T02:51:50;100404.38;;;21.13;44.40
40075;BME280;26529;51.530;11.754;2023-02-18T02:56:44;100402.59;;;21.13;44.14
40075;BME280;26529;51.530;11.754;2023-02-18T02:59:19;100404.50;;;21.11;44.47
40075;BME280;26529;51.530;11.754;2023-02-18T03:07:40;100394.81;;;21.10;44.38
40075;BME280;26529;51.530;11.754;2023-02-18T03:13:08;100394.03;;;21.08;44.52
40075;BME280;26529;51.530;11.754;2023-02-18T03:15:46;100387.88;;;21.08;44.42
40075;BME280;26529;51.530;11.754;2023-02-18T03:18:20;100385.22;;;21.08;44.40
40075;BME280;26529;51.530;11.754;2023-02-18T03:21:03;100380.72;;;21.08;44.42
40075;BME280;26529;51.530;11.754;2023-02-18T03:23:34;100375.53;;;21.07;44.40
40075;BME280;26529;51.530;11.754;2023-02-18T03:26:03;100377.31;;;21.06;44.48
40075;BME280;26529;51.530;11.754;2023-02-18T03:28:30;100371.97;;;21.06;44.31
40075;BME280;26529;51.530;11.754;2023-02-18T03:31:05;100365.91;;;21.04;44.40
40075;BME280;26529;51.530;11.754;2023-02-18T03:33:36;100368.59;;;21.04;44.43
40075;BME280;26529;51.530;11.754;2023-02-18T03:36:04;100362.38;;;21.04;44.45
40075;BME280;26529;51.530;11.754;2023-02-18T03:38:39;100373.91;;;21.04;44.43
40075;BME280;26529;51.530;11.754;2023-02-18T03:41:07;100373.91;;;21.04;44.47
40075;BME280;26529;51.530;11.754;2023-02-18T03:43:34;100370.47;;;21.02;44.46
40075;BME280;26529;51.530;11.754;2023-02-18T03:46:01;100372.22;;;21.03;44.51
40075;BME280;26529;51.530;11.754;2023-02-18T03:48:27;100373.16;;;21.02;44.57
40075;BME280;26529;51.530;11.754;2023-02-18T03:50:52;100375.81;;;21.02;44.50
40075;BME280;26529;51.530;11.754;2023-02-18T03:53:18;100371.44;;;21.01;44.49
40075;BME280;26529;51.530;11.754;2023-02-18T03:55:43;100371.53;;;20.99;44.45
40075;BME280;26529;51.530;11.754;2023-02-18T03:58:09;100368.88;;;20.99;44.31
40075;BME280;26529;51.530;11.754;2023-02-18T04:00:34;100357.38;;;20.99;44.25
40075;BME280;26529;51.530;11.754;2023-02-18T04:03:00;100348.53;;;20.98;44.50
40075;BME280;26529;51.530;11.754;2023-02-18T04:05:25;100353.03;;;20.98;44.63
40075;BME280;26529;51.530;11.754;2023-02-18T04:07:51;100347.69;;;20.98;44.46
40075;BME280;26529;51.530;11.754;2023-02-18T04:10:16;100340.66;;;20.97;44.49
40075;BME280;26529;51.530;11.754;2023-02-18T04:12:42;100340.66;;;20.97;44.51
40075;BME280;26529;51.530;11.754;2023-02-18T04:15:08;100341.50;;;20.97;44.52
40075;BME280;26529;51.530;11.754;2023-02-18T04:17:33;100346.81;;;20.97;44.51
40075;BME280;26529;51.530;11.754;2023-02-18T04:19:59;100342.34;;;20.98;44.41
40075;BME280;26529;51.530;11.754;2023-02-18T04:22:24;100356.66;;;20.97;44.39
40075;BME280;26529;51.530;11.754;2023-02-18T04:24:50;100351.31;;;20.97;44.43
40075;BME280;26529;51.530;11.754;2023-02-18T04:27:15;100363.69;;;20.98;44.53
40075;BME280;26529;51.530;11.754;2023-02-18T04:29:41;100358.56;;;20.95;44.39
40075;BME280;26529;51.530;11.754;2023-02-18T04:32:06;100351.53;;;20.94;44.49
40075;BME280;26529;51.530;11.754;2023-02-18T04:34:32;100353.22;;;20.95;44.55
40075;BME280;26529;51.530;11.754;2023-02-18T04:36:57;100343.63;;;20.92;44.43
40075;BME280;26529;51.530;11.754;2023-02-18T04:39:23;100336.50;;;20.93;44.41
40075;BME280;26529;51.530;11.754;2023-02-18T04:41:48;100344.50;;;20.93;44.29
40075;BME280;26529;51.530;11.754;2023-02-18T04:44:14;100343.63;;;20.92;44.61
40075;BME280;26529;51.530;11.754;2023-02-18T04:46:40;100345.44;;;20.92;44.57
40075;BME280;26529;51.530;11.754;2023-02-18T04:49:05;100342.78;;;20.92;44.25
40075;BME280;26529;51.530;11.754;2023-02-18T04:51:30;100333.81;;;20.93;44.56
40075;BME280;26529;51.530;11.754;2023-02-18T04:53:56;100326.91;;;20.90;44.63
40075;BME280;26529;51.530;11.754;2023-02-18T04:56:22;100317.19;;;20.89;44.59
40075;BME280;26529;51.530;11.754;2023-02-18T04:58:47;100311.00;;;20.88;44.66
40075;BME280;26529;51.530;11.754;2023-02-18T05:01:13;100299.41;;;20.90;44.49
40075;BME280;26529;51.530;11.754;2023-02-18T05:03:38;100295.00;;;20.88;44.51
40075;BME280;26529;51.530;11.754;2023-02-18T05:06:04;100284.34;;;20.88;44.37
40075;BME280;26529;51.530;11.754;2023-02-18T05:08:29;100285.22;;;20.89;44.63
40075;BME280;26529;51.530;11.754;2023-02-18T05:10:55;100279.03;;;20.88;44.63
40075;BME280;26529;51.530;11.754;2023-02-18T05:13:21;100275.53;;;20.88;44.46
40075;BME280;26529;51.530;11.754;2023-02-18T05:15:47;100275.53;;;20.88;44.46
40075;BME280;26529;51.530;11.754;2023-02-18T05:18:13;100274.66;;;20.87;44.69
40075;BME280;26529;51.530;11.754;2023-02-18T05:20:38;100267.63;;;20.86;44.57
40075;BME280;26529;51.530;11.754;2023-02-18T05:23:04;100260.59;;;20.85;44.52
40075;BME280;26529;51.530;11.754;2023-02-18T05:25:29;100250.91;;;20.84;44.55
40075;BME280;26529;51.530;11.754;2023-02-18T05:27:55;100247.28;;;20.85;44.58
40075;BME280;26529;51.530;11.754;2023-02-18T05:30:20;100242.78;;;20.86;44.54
40075;BME280;26529;51.530;11.754;2023-02-18T05:32:46;100249.94;;;20.85;44.59
40075;BME280;26529;51.530;11.754;2023-02-18T05:35:11;100257.06;;;20.85;44.40
40075;BME280;26529;51.530;11.754;2023-02-18T05:37:38;100241.09;;;20.85;44.52
40075;BME280;26529;51.530;11.754;2023-02-18T05:40:04;100239.38;;;20.84;44.58
40075;BME280;26529;51.530;11.754;2023-02-18T05:42:29;100221.59;;;20.84;44.50
40075;BME280;26529;51.530;11.754;2023-02-18T05:44:57;100219.97;;;20.82;44.60
40075;BME280;26529;51.530;11.754;2023-02-18T05:47:23;100214.63;;;20.82;44.64
40075;BME280;26529;51.530;11.754;2023-02-18T05:49:49;100213.78;;;20.81;44.51
40075;BME280;26529;51.530;11.754;2023-02-18T05:52:16;100210.13;;;20.82;44.52
40075;BME280;26529;51.530;11.754;2023-02-18T05:54:41;100211.09;;;20.81;44.53
40075;BME280;26529;51.530;11.754;2023-02-18T05:57:07;100206.75;;;20.80;44.42
40075;BME280;26529;51.530;11.754;2023-02-18T05:59:32;100206.75;;;20.80;44.58
40075;BME280;26529;51.530;11.754;2023-02-18T06:01:58;100201.50;;;20.79;44.63
40075;BME280;26529;51.530;11.754;2023-02-18T06:04:24;100195.25;;;20.80;44.61
40075;BME280;26529;51.530;11.754;2023-02-18T06:06:50;100196.19;;;20.79;44.52
40075;BME280;26529;51.530;11.754;2023-02-18T06:09:16;100208.56;;;20.80;44.58
40075;BME280;26529;51.530;11.754;2023-02-18T06:11:41;100203.34;;;20.78;44.59
40075;BME280;26529;51.530;11.754;2023-02-18T06:14:07;100197.06;;;20.79;44.57
40075;BME280;26529;51.530;11.754;2023-02-18T06:16:32;100190.03;;;20.78;44.65
40075;BME280;26529;51.530;11.754;2023-02-18T06:18:58;100186.50;;;20.78;44.53
40075;BME280;26529;51.530;11.754;2023-02-18T06:21:24;100170.97;;;20.84;44.59
40075;BME280;26529;51.530;11.754;2023-02-18T06:23:50;100160.81;;;20.90;44.37
40075;BME280;26529;51.530;11.754;2023-02-18T06:26:15;100162.28;;;20.94;44.37
40075;BME280;26529;51.530;11.754;2023-02-18T06:28:40;100152.34;;;20.96;44.36
40075;BME280;26529;51.530;11.754;2023-02-18T06:31:06;100160.03;;;21.00;44.25
40075;BME280;26529;51.530;11.754;2023-02-18T06:33:31;100153.84;;;21.00;44.20
40075;BME280;26529;51.530;11.754;2023-02-18T06:36:04;100161.50;;;21.05;44.18
40075;BME280;26529;51.530;11.754;2023-02-18T06:38:37;100162.13;;;21.08;44.34
40075;BME280;26529;51.530;11.754;2023-02-18T06:41:02;100165.31;;;21.13;43.96
40075;BME280;26529;51.530;11.754;2023-02-18T06:43:28;100156.22;;;21.16;44.05
40075;BME280;26529;51.530;11.754;2023-02-18T06:45:54;100154.44;;;21.17;44.07
40075;BME280;26529;51.530;11.754;2023-02-18T06:48:20;100157.81;;;21.19;44.04
40075;BME280;26529;51.530;11.754;2023-02-18T06:50:45;100154.19;;;21.20;44.15
40075;BME280;26529;51.530;11.754;2023-02-18T06:53:11;100161.44;;;21.18;44.42
40075;BME280;26529;51.530;11.754;2023-02-18T06:55:37;100149.09;;;21.17;44.60
40075;BME280;26529;51.530;11.754;2023-02-18T06:58:03;100135.00;;;21.14;44.67
40075;BME280;26529;51.530;11.754;2023-02-18T07:00:29;100129.47;;;21.18;44.83
40075;BME280;26529;51.530;11.754;2023-02-18T07:02:54;100141.72;;;21.20;44.54
40075;BME280;26529;51.530;11.754;2023-02-18T07:05:20;100128.38;;;21.20;44.79
40075;BME280;26529;51.530;11.754;2023-02-18T07:07:45;100118.78;;;21.18;44.89
40075;BME280;26529;51.530;11.754;2023-02-18T07:10:11;100116.00;;;21.19;44.84
40075;BME280;26529;51.530;11.754;2023-02-18T07:12:36;100112.38;;;21.20;45.23
40075;BME280;26529;51.530;11.754;2023-02-18T07:15:02;100110.34;;;21.24;44.79
40075;BME280;26529;51.530;11.754;2023-02-18T07:17:28;100105.84;;;21.24;44.92
40075;BME280;26529;51.530;11.754;2023-02-18T07:19:53;100100.41;;;21.26;44.95
40075;BME280;26529;51.530;11.754;2023-02-18T07:22:21;100099.53;;;21.25;44.91
40075;BME280;26529;51.530;11.754;2023-02-18T07:24:51;100103.78;;;21.28;45.12
40075;BME280;26529;51.530;11.754;2023-02-18T07:27:17;100099.31;;;21.28;45.11
40075;BME280;26529;51.530;11.754;2023-02-18T07:29:42;100092.91;;;21.31;45.39
40075;BME280;26529;51.530;11.754;2023-02-18T07:32:11;100091.94;;;21.32;45.45
40075;BME280;26529;51.530;11.754;2023-02-18T07:34:37;100091.22;;;21.30;45.10
40075;BME280;26529;51.530;11.754;2023-02-18T07:37:02;100085.63;;;21.33;44.85
40075;BME280;26529;51.530;11.754;2023-02-18T07:39:43;100086.34;;;21.35;45.18
40075;BME280;26529;51.530;11.754;2023-02-18T07:42:11;100087.09;;;21.37;44.87
40075;BME280;26529;51.530;11.754;2023-02-18T07:44:39;100087.84;;;21.39;45.59
40075;BME280;26529;51.530;11.754;2023-02-18T07:47:05;100079.22;;;21.36;44.76
40075;BME280;26529;51.530;11.754;2023-02-18T07:49:31;100087.31;;;21.34;44.75
40075;BME280;26529;51.530;11.754;2023-02-18T07:51:57;100079.44;;;21.33;44.78
40075;BME280;26529;51.530;11.754;2023-02-18T07:54:22;100090.09;;;21.33;45.02
40075;BME280;26529;51.530;11.754;2023-02-18T07:56:48;100084.66;;;21.34;44.88
40075;BME280;26529;51.530;11.754;2023-02-18T07:59:14;100082.97;;;21.33;44.91
40075;BME280;26529;51.530;11.754;2023-02-18T08:01:40;100091.94;;;21.32;45.10
40075;BME280;26529;51.530;11.754;2023-02-18T08:04:06;100082.25;;;21.31;44.93
40075;BME280;26529;51.530;11.754;2023-02-18T08:06:37;100094.59;;;21.32;44.87
40075;BME280;26529;51.530;11.754;2023-02-18T08:09:03;100090.25;;;21.31;44.87
40075;BME280;26529;51.530;11.754;2023-02-18T08:11:29;100096.53;;;21.30;44.88
40075;BME280;26529;51.530;11.754;2023-02-18T08:13:54;100080.75;;;21.27;44.80
40075;BME280;26529;51.530;11.754;2023-02-18T08:16:20;100086.34;;;21.24;45.02
40075;BME280;26529;51.530;11.754;2023-02-18T08:18:47;100081.00;;;21.24;44.87
40075;BME280;26529;51.530;11.754;2023-02-18T08:21:15;100081.22;;;21.21;44.77
40075;BME280;26529;51.530;11.754;2023-02-18T08:23:41;100078.56;;;21.21;44.83
40075;BME280;26529;51.530;11.754;2023-02-18T08:26:06;100066.31;;;21.18;44.83
40075;BME280;26529;51.530;11.754;2023-02-18T08:28:41;100077.44;;;21.12;45.11
40075;BME280;26529;51.530;11.754;2023-02-18T08:31:06;100068.09;;;21.06;45.13
40075;BME280;26529;51.530;11.754;2023-02-18T08:33:32;100061.28;;;21.02;45.29
40075;BME280;26529;51.530;11.754;2023-02-18T08:35:58;100061.41;;;21.00;45.27
40075;BME280;26529;51.530;11.754;2023-02-18T08:38:24;100057.88;;;21.00;45.10
40075;BME280;26529;51.530;11.754;2023-02-18T08:40:50;100050.00;;;20.98;45.28
40075;BME280;26529;51.530;11.754;2023-02-18T08:43:16;100041.16;;;20.98;45.25
40075;BME280;26529;51.530;11.754;2023-02-18T08:45:44;100040.41;;;20.96;45.36
40075;BME280;26529;51.530;11.754;2023-02-18T08:48:12;100044.03;;;20.95;45.36
40075;BME280;26529;51.530;11.754;2023-02-18T08:50:38;100034.34;;;20.94;45.40
40075;BME280;26529;51.530;11.754;2023-02-18T08:53:03;100018.47;;;20.92;45.29
40075;BME280;26529;51.530;11.754;2023-02-18T08:55:31;100024.66;;;20.93;45.37
40075;BME280;26529;51.530;11.754;2023-02-18T08:57:57;100013.38;;;20.89;45.42
40075;BME280;26529;51.530;11.754;2023-02-18T09:00:23;100012.41;;;20.90;45.38
40075;BME280;26529;51.530;11.754;2023-02-18T09:02:48;100011.59;;;20.90;45.55
40075;BME280;26529;51.530;11.754;2023-02-18T09:05:14;100007.81;;;20.92;45.21
40075;BME280;26529;51.530;11.754;2023-02-18T09:07:40;100008.78;;;20.91;45.29
40075;BME280;26529;51.530;11.754;2023-02-18T09:10:06;99999.19;;;20.88;45.36
40075;BME280;26529;51.530;11.754;2023-02-18T09:12:32;99999.97;;;20.91;45.40
40075;BME280;26529;51.530;11.754;2023-02-18T09:14:58;100004.31;;;20.92;45.15
40075;BME280;26529;51.530;11.754;2023-02-18T09:17:25;99998.88;;;20.93;45.19
40075;BME280;26529;51.530;11.754;2023-02-18T09:19:51;99996.31;;;20.92;45.31
40075;BME280;26529;51.530;11.754;2023-02-18T09:22:16;99998.25;;;20.90;45.33
40075;BME280;26529;51.530;11.754;2023-02-18T09:24:42;99994.63;;;20.91;45.25
40075;BME280;26529;51.530;11.754;2023-02-18T09:27:07;99991.81;;;20.92;45.19
40075;BME280;26529;51.530;11.754;2023-02-18T09:29:33;99981.91;;;20.94;45.27
40075;BME280;26529;51.530;11.754;2023-02-18T09:32:02;99977.19;;;20.98;44.99
40075;BME280;26529;51.530;11.754;2023-02-18T09:34:28;99977.06;;;20.99;44.88
40075;BME280;26529;51.530;11.754;2023-02-18T09:36:53;99990.16;;;21.03;45.08
40075;BME280;26529;51.530;11.754;2023-02-18T09:39:19;99976.84;;;21.03;44.89
40075;BME280;26529;51.530;11.754;2023-02-18T09:41:47;99986.44;;;21.05;44.80
40075;BME280;26529;51.530;11.754;2023-02-18T09:44:24;99967.66;;;21.07;44.73
40075;BME280;26529;51.530;11.754;2023-02-18T09:47:05;99963.16;;;21.07;44.85
40075;BME280;26529;51.530;11.754;2023-02-18T09:49:34;99957.81;;;21.07;44.75
40075;BME280;26529;51.530;11.754;2023-02-18T09:52:11;99941.72;;;21.09;44.86
40075;BME280;26529;51.530;11.754;2023-02-18T09:54:39;99939.88;;;21.09;44.93
40075;BME280;26529;51.530;11.754;2023-02-18T09:57:05;99948.63;;;21.11;44.96
40075;BME280;26529;51.530;11.754;2023-02-18T09:59:32;99947.56;;;21.14;44.93
40075;BME280;26529;51.530;11.754;2023-02-18T10:01:57;99947.41;;;21.15;45.03
40075;BME280;26529;51.530;11.754;2023-02-18T10:04:29;99949.84;;;21.19;44.92
40075;BME280;26529;51.530;11.754;2023-02-18T10:06:59;99957.84;;;21.19;45.25
40075;BME280;26529;51.530;11.754;2023-02-18T10:09:32;99953.50;;;21.18;45.18
40075;BME280;26529;51.530;11.754;2023-02-18T10:12:15;99954.94;;;21.22;44.93
40075;BME280;26529;51.530;11.754;2023-02-18T10:14:43;99951.19;;;21.24;45.26
40075;BME280;26529;51.530;11.754;2023-02-18T10:17:14;99951.66;;;21.18;45.83
40075;BME280;26529;51.530;11.754;2023-02-18T10:19:42;99926.09;;;21.15;45.98
40075;BME280;26529;51.530;11.754;2023-02-18T10:22:11;99933.72;;;21.09;46.62
40075;BME280;26529;51.530;11.754;2023-02-18T10:24:40;99922.69;;;21.02;46.80
40075;BME280;26529;51.530;11.754;2023-02-18T10:27:07;99924.63;;;21.00;46.83
40075;BME280;26529;51.530;11.754;2023-02-18T10:29:34;99912.25;;;20.99;46.64
40075;BME280;26529;51.530;11.754;2023-02-18T10:32:21;99931.91;;;20.98;46.66
40075;BME280;26529;51.530;11.754;2023-02-18T10:34:56;99915.16;;;20.96;46.51
40075;BME280;26529;51.530;11.754;2023-02-18T10:37:47;99908.00;;;20.96;46.42
40075;BME280;26529;51.530;11.754;2023-02-18T10:45:46;99913.59;;;20.93;46.46
40075;BME280;26529;51.530;11.754;2023-02-18T10:50:57;99916.38;;;20.92;46.30
40075;BME280;26529;51.530;11.754;2023-02-18T10:53:32;99908.38;;;20.92;46.34
40075;BME280;26529;51.530;11.754;2023-02-18T10:55:58;99919.03;;;20.92;46.30
40075;BME280;26529;51.530;11.754;2023-02-18T10:58:34;99905.72;;;20.92;46.21
40075;BME280;26529;51.530;11.754;2023-02-18T11:01:03;99898.69;;;20.91;46.26
40075;BME280;26529;51.530;11.754;2023-02-18T11:04:04;99897.00;;;20.90;46.14
40075;BME280;26529;51.530;11.754;2023-02-18T11:06:39;99898.06;;;20.87;46.39
40075;BME280;26529;51.530;11.754;2023-02-18T11:09:10;99889.13;;;20.88;46.20
40075;BME280;26529;51.530;11.754;2023-02-18T11:11:45;99883.88;;;20.86;46.19
40075;BME280;26529;51.530;11.754;2023-02-18T11:14:15;99875.91;;;20.86;46.17
40075;BME280;26529;51.530;11.754;2023-02-18T11:16:44;99868.88;;;20.85;46.08
40075;BME280;26529;51.530;11.754;2023-02-18T11:19:33;99867.91;;;20.86;46.07
40075;BME280;26529;51.530;11.754;2023-02-18T11:22:18;99876.88;;;20.85;46.16
40075;BME280;26529;51.530;11.754;2023-02-18T11:24:44;99865.25;;;20.86;46.06
40075;BME280;26529;51.530;11.754;2023-02-18T11:27:40;99872.50;;;20.84;46.10
40075;BME280;26529;51.530;11.754;2023-02-18T11:30:19;99851.19;;;20.84;46.13
40075;BME280;26529;51.530;11.754;2023-02-18T11:32:48;99820.91;;;20.85;46.05
40075;BME280;26529;51.530;11.754;2023-02-18T11:35:25;99820.91;;;20.85;46.05
40075;BME280;26529;51.530;11.754;2023-02-18T11:37:52;99810.25;;;20.85;46.06
40075;BME280;26529;51.530;11.754;2023-02-18T11:40:24;99807.34;;;20.88;46.01
40075;BME280;26529;51.530;11.754;2023-02-18T11:42:50;99788.56;;;20.90;45.97
40075;BME280;26529;51.530;11.754;2023-02-18T11:45:28;99786.28;;;20.97;45.82
40075;BME280;26529;51.530;11.754;2023-02-18T11:48:00;99768.56;;;21.07;45.56
40075;BME280;26529;51.530;11.754;2023-02-18T11:50:30;99786.50;;;21.17;45.50
40075;BME280;26529;51.530;11.754;2023-02-18T11:52:55;99768.31;;;21.22;45.28
40075;BME280;26529;51.530;11.754;2023-02-18T11:55:25;99778.97;;;21.22;45.29
40075;BME280;26529;51.530;11.754;2023-02-18T11:57:59;99785.75;;;21.26;45.34
40075;BME280;26529;51.530;11.754;2023-02-18T12:00:43;99784.78;;;21.38;45.57
40075;BME280;26529;51.530;11.754;2023-02-18T12:03:27;99805.63;;;21.45;45.51
40075;BME280;26529;51.530;11.754;2023-02-18T12:05:57;99799.69;;;21.41;45.26
40075;BME280;26529;51.530;11.754;2023-02-18T12:08:31;99811.94;;;21.32;45.74
40075;BME280;26529;51.530;11.754;2023-02-18T12:11:09;99786.38;;;21.30;45.85
40075;BME280;26529;51.530;11.754;2023-02-18T12:13:42;99787.22;;;21.30;45.90
40075;BME280;26529;51.530;11.754;2023-02-18T12:19:32;99790.34;;;21.35;45.95
40075;BME280;26529;51.530;11.754;2023-02-18T12:22:20;99813.84;;;21.41;45.55
40075;BME280;26529;51.530;11.754;2023-02-18T12:25:25;99793.25;;;21.44;45.63
40075;BME280;26529;51.530;11.754;2023-02-18T12:28:45;99789.63;;;21.45;45.50
40075;BME280;26529;51.530;11.754;2023-02-18T12:33:55;99761.75;;;21.37;45.77
40075;BME280;26529;51.530;11.754;2023-02-18T12:36:49;99769.16;;;21.34;45.95
40075;BME280;26529;51.530;11.754;2023-02-18T12:42:17;99788.66;;;21.34;46.05
40075;BME280;26529;51.530;11.754;2023-02-18T12:48:15;99814.00;;;21.40;45.39
40075;BME280;26529;51.530;11.754;2023-02-18T12:51:03;99828.66;;;21.46;45.14
40075;BME280;26529;51.530;11.754;2023-02-18T12:56:12;99810.81;;;21.46;45.35
40075;BME280;26529;51.530;11.754;2023-02-18T12:59:06;99823.53;;;21.42;45.31
40075;BME280;26529;51.530;11.754;2023-02-18T13:01:48;99832.78;;;21.38;45.39
40075;BME280;26529;51.530;11.754;2023-02-18T13:04:39;99843.06;;;21.32;45.64
40075;BME280;26529;51.530;11.754;2023-02-18T13:15:39;99838.09;;;21.15;46.22
40075;BME280;26529;51.530;11.754;2023-02-18T13:18:19;99841.75;;;21.14;46.18
40075;BME280;26529;51.530;11.754;2023-02-18T13:20:53;99835.69;;;21.12;46.14
40075;BME280;26529;51.530;11.754;2023-02-18T13:23:22;99847.34;;;21.11;46.27
40075;BME280;26529;51.530;11.754;2023-02-18T13:25:54;99855.44;;;21.10;46.27
40075;BME280;26529;51.530;11.754;2023-02-18T13:31:16;99857.41;;;21.08;46.34
40075;BME280;26529;51.530;11.754;2023-02-18T13:33:59;99849.50;;;21.06;46.21
40075;BME280;26529;51.530;11.754;2023-02-18T13:36:46;99851.47;;;21.04;46.28
40075;BME280;26529;51.530;11.754;2023-02-18T13:39:18;99857.75;;;21.03;46.30
40075;BME280;26529;51.530;11.754;2023-02-18T13:41:50;99837.38;;;21.02;46.32
40075;BME280;26529;51.530;11.754;2023-02-18T13:46:48;99835.94;;;20.98;46.26
40075;BME280;26529;51.530;11.754;2023-02-18T13:49:17;99841.28;;;20.98;46.29
40075;BME280;26529;51.530;11.754;2023-02-18T13:51:46;99860.91;;;20.97;46.42
40075;BME280;26529;51.530;11.754;2023-02-18T13:56:46;99843.19;;;20.96;46.27
40075;BME280;26529;51.530;11.754;2023-02-18T13:59:38;99830.84;;;20.95;46.27
40075;BME280;26529;51.530;11.754;2023-02-18T14:04:53;99845.75;;;20.97;46.15
40075;BME280;26529;51.530;11.754;2023-02-18T14:10:03;99868.91;;;20.97;46.11
40075;BME280;26529;51.530;11.754;2023-02-18T14:14:56;99862.72;;;20.96;46.12